Time;durP1;ratioP1;P1;durP2;ratioP2;P2;SDS_P1;SDS_P2;PMS_P1;PMS_P2;Temp;Humidity;BMP_temperature;BMP_pressure;BME280_temperature;BME280_humidity;BME280_pressure;Samples;Min_cycle;Max_cycle;Signal;HPM_P1;HPM_P2
2023/07/03 00:01:50;;;;;;;17.13;10.40;;;;;;;;;;5030483;28;20525;-83
2023/07/03 00:04:17;;;;;;;14.97;9.47;;;;;;;;;;5009272;28;20580;-82
2023/07/03 00:06:44;;;;;;;15.33;9.63;;;;;;;;;;5030065;28;20206;-83
2023/07/03 00:09:10;;;;;;;16.87;9.60;;;;;;;;;;5025403;28;20335;-82
2023/07/03 00:11:37;;;;;;;17.07;9.97;;;;;;;;;;5024737;28;20198;-83
2023/07/03 00:14:03;;;;;;;17.17;10.10;;;;;;;;;;5009222;28;20183;-82
2023/07/03 00:16:29;;;;;;;16.60;10.13;;;;;;;;;;5060733;28;20205;-83
2023/07/03 00:18:55;;;;;;;17.87;10.57;;;;;;;;;;5040376;28;20265;-83
2023/07/03 00:21:21;;;;;;;15.10;10.07;;;;;;;;;;5016360;28;20201;-83
2023/07/03 00:23:47;;;;;;;13.37;9.40;;;;;;;;;;5026621;28;21025;-83
2023/07/03 00:26:13;;;;;;;14.10;8.87;;;;;;;;;;5037162;28;20236;-83
2023/07/03 00:28:40;;;;;;;15.23;9.50;;;;;;;;;;5016881;28;20237;-84
2023/07/03 00:31:06;;;;;;;13.97;9.37;;;;;;;;;;5020598;28;20194;-83
2023/07/03 00:33:32;;;;;;;15.53;9.80;;;;;;;;;;5018154;28;20197;-83
2023/07/03 00:35:58;;;;;;;17.10;10.17;;;;;;;;;;5018060;28;20217;-82
2023/07/03 00:38:25;;;;;;;17.63;10.10;;;;;;;;;;5020939;28;20182;-84
2023/07/03 00:40:51;;;;;;;15.73;10.17;;;;;;;;;;5011508;28;20290;-83
2023/07/03 00:43:17;;;;;;;15.17;9.77;;;;;;;;;;5069495;28;20205;-82
2023/07/03 00:45:44;;;;;;;17.43;10.00;;;;;;;;;;5028497;28;20220;-82
2023/07/03 00:48:10;;;;;;;17.60;9.97;;;;;;;;;;5024330;28;20214;-83
2023/07/03 00:50:36;;;;;;;18.30;10.33;;;;;;;;;;5027014;28;20209;-83
2023/07/03 00:53:04;;;;;;;16.80;9.90;;;;;;;;;;5016075;28;20261;-83
2023/07/03 00:55:31;;;;;;;16.87;9.63;;;;;;;;;;5031339;28;20213;-83
2023/07/03 00:57:58;;;;;;;15.77;10.00;;;;;;;;;;5017514;28;20214;-83
2023/07/03 01:00:29;;;;;;;14.00;9.47;;;;;;;;;;5038680;28;20736;-83
2023/07/03 01:02:58;;;;;;;14.97;9.67;;;;;;;;;;5023225;28;20658;-84
2023/07/03 01:05:27;;;;;;;16.17;9.27;;;;;;;;;;5018372;28;20216;-83
2023/07/03 01:07:54;;;;;;;14.73;10.43;;;;;;;;;;5024975;28;20244;-83
2023/07/03 01:10:21;;;;;;;19.00;10.67;;;;;;;;;;5036372;28;20550;-83
2023/07/03 01:12:53;;;;;;;15.23;9.90;;;;;;;;;;5030998;28;20202;-83
2023/07/03 01:15:22;;;;;;;15.50;9.97;;;;;;;;;;5003460;28;20201;-84
2023/07/03 01:17:50;;;;;;;16.63;10.07;;;;;;;;;;5037448;28;20185;-83
2023/07/03 01:20:18;;;;;;;16.07;10.17;;;;;;;;;;5017736;28;20212;-83
2023/07/03 01:22:57;;;;;;;16.77;10.53;;;;;;;;;;5053343;28;20984;-83
2023/07/03 01:25:25;;;;;;;16.60;10.17;;;;;;;;;;5031568;28;20280;-82
2023/07/03 01:27:52;;;;;;;17.17;10.37;;;;;;;;;;5017272;28;20457;-84
2023/07/03 01:30:20;;;;;;;14.97;9.97;;;;;;;;;;5037740;28;20182;-84
2023/07/03 01:32:47;;;;;;;18.63;10.87;;;;;;;;;;5036608;28;20639;-82
2023/07/03 01:35:15;;;;;;;15.77;9.60;;;;;;;;;;5014315;28;20206;-83
2023/07/03 01:37:42;;;;;;;17.07;10.17;;;;;;;;;;5043576;28;20174;-83
2023/07/03 01:40:10;;;;;;;17.20;10.70;;;;;;;;;;5034955;28;20182;-84
2023/07/03 01:42:38;;;;;;;17.93;10.43;;;;;;;;;;5021523;28;20193;-83
2023/07/03 01:45:08;;;;;;;16.90;9.70;;;;;;;;;;5015533;28;20689;-83
2023/07/03 01:47:37;;;;;;;17.27;10.30;;;;;;;;;;5015841;28;20558;-83
2023/07/03 01:50:04;;;;;;;18.00;10.47;;;;;;;;;;5017602;28;20240;-83
2023/07/03 01:52:40;;;;;;;15.37;9.30;;;;;;;;;;5044546;28;20217;-84
2023/07/03 01:55:20;;;;;;;16.03;9.63;;;;;;;;;;5037270;28;20235;-84
2023/07/03 01:57:53;;;;;;;15.70;9.67;;;;;;;;;;5030964;28;20182;-84
2023/07/03 02:00:23;;;;;;;16.63;9.87;;;;;;;;;;5032504;28;20183;-83
2023/07/03 02:02:52;;;;;;;20.07;11.37;;;;;;;;;;5003928;28;20185;-83
2023/07/03 02:05:22;;;;;;;14.93;10.93;;;;;;;;;;5052935;28;20204;-84
2023/07/03 02:07:51;;;;;;;17.77;10.97;;;;;;;;;;5016400;28;20186;-83
2023/07/03 02:10:17;;;;;;;16.77;10.87;;;;;;;;;;5024030;28;20220;-82
2023/07/03 02:12:47;;;;;;;14.97;10.10;;;;;;;;;;5017680;28;20209;-81
2023/07/03 02:15:17;;;;;;;14.87;10.20;;;;;;;;;;5010108;28;20202;-83
2023/07/03 02:17:44;;;;;;;15.57;10.40;;;;;;;;;;5034271;28;20328;-84
2023/07/03 02:20:14;;;;;;;17.33;10.30;;;;;;;;;;4994154;28;20198;-83
2023/07/03 02:22:43;;;;;;;18.40;11.20;;;;;;;;;;5023112;28;20182;-84
2023/07/03 02:25:10;;;;;;;18.93;11.37;;;;;;;;;;5025243;28;20247;-84
2023/07/03 02:27:37;;;;;;;17.10;10.90;;;;;;;;;;5046207;28;20197;-83
2023/07/03 02:30:05;;;;;;;18.37;11.27;;;;;;;;;;5039207;28;20188;-83
2023/07/03 02:32:38;;;;;;;16.80;10.70;;;;;;;;;;5019003;28;20288;-84
2023/07/03 02:35:04;;;;;;;18.33;10.77;;;;;;;;;;4998198;28;20245;-84
2023/07/03 02:37:31;;;;;;;17.90;11.43;;;;;;;;;;5030100;28;20190;-84
2023/07/03 02:39:57;;;;;;;16.83;10.57;;;;;;;;;;5020165;28;20170;-83
2023/07/03 02:42:23;;;;;;;18.37;10.80;;;;;;;;;;5001506;28;20254;-83
2023/07/03 02:44:49;;;;;;;18.80;11.20;;;;;;;;;;5013544;28;20186;-84
2023/07/03 02:47:16;;;;;;;17.83;10.30;;;;;;;;;;5021392;28;20224;-83
2023/07/03 02:49:42;;;;;;;15.57;10.80;;;;;;;;;;5037047;28;20227;-84
2023/07/03 02:52:09;;;;;;;18.03;10.60;;;;;;;;;;5034666;28;20212;-84
2023/07/03 02:54:36;;;;;;;17.40;11.37;;;;;;;;;;5036797;28;20243;-83
2023/07/03 02:57:03;;;;;;;16.63;10.80;;;;;;;;;;5032367;28;20203;-84
2023/07/03 02:59:30;;;;;;;15.47;9.63;;;;;;;;;;5039036;28;20614;-84
2023/07/03 03:01:57;;;;;;;16.70;10.20;;;;;;;;;;5023893;28;20193;-84
2023/07/03 03:04:24;;;;;;;17.07;10.07;;;;;;;;;;5035954;28;20216;-83
2023/07/03 03:06:50;;;;;;;15.33;10.30;;;;;;;;;;4993315;28;20292;-83
2023/07/03 03:09:16;;;;;;;13.70;10.03;;;;;;;;;;5019253;28;20265;-83
2023/07/03 03:11:43;;;;;;;16.30;10.50;;;;;;;;;;5002217;28;20746;-84
2023/07/03 03:14:09;;;;;;;18.10;10.80;;;;;;;;;;5002325;28;20242;-83
2023/07/03 03:16:35;;;;;;;16.53;10.07;;;;;;;;;;5011455;28;20210;-83
2023/07/03 03:19:01;;;;;;;15.83;9.60;;;;;;;;;;5029101;28;20170;-83
2023/07/03 03:21:28;;;;;;;14.73;9.60;;;;;;;;;;5024893;28;20190;-84
2023/07/03 03:23:54;;;;;;;17.77;10.70;;;;;;;;;;5015637;28;20210;-83
2023/07/03 03:26:20;;;;;;;17.17;9.73;;;;;;;;;;5026280;28;20232;-83
2023/07/03 03:28:47;;;;;;;14.17;9.30;;;;;;;;;;5016630;28;20568;-83
2023/07/03 03:31:13;;;;;;;18.00;10.40;;;;;;;;;;5023556;28;20210;-83
2023/07/03 03:33:48;;;;;;;14.47;9.43;;;;;;;;;;5027441;28;20275;-83
2023/07/03 03:36:14;;;;;;;16.23;10.23;;;;;;;;;;5021508;28;20348;-84
2023/07/03 03:38:40;;;;;;;13.93;10.03;;;;;;;;;;5026993;28;20555;-83
2023/07/03 03:41:06;;;;;;;16.93;10.37;;;;;;;;;;5043983;28;20212;-84
2023/07/03 03:43:37;;;;;;;16.47;10.30;;;;;;;;;;5028435;28;20217;-83
2023/07/03 03:46:04;;;;;;;16.53;10.23;;;;;;;;;;4993384;28;20210;-84
2023/07/03 03:48:33;;;;;;;14.77;9.00;;;;;;;;;;5017361;28;20186;-83
2023/07/03 03:51:01;;;;;;;13.73;9.60;;;;;;;;;;5016928;28;20209;-83
2023/07/03 03:53:29;;;;;;;16.00;9.73;;;;;;;;;;5025224;28;20703;-82
2023/07/03 03:55:55;;;;;;;15.70;9.50;;;;;;;;;;5017266;28;20214;-82
2023/07/03 03:58:22;;;;;;;13.50;8.97;;;;;;;;;;5040744;28;20241;-82
2023/07/03 04:00:50;;;;;;;17.83;9.00;;;;;;;;;;5018220;28;20186;-83
2023/07/03 04:03:17;;;;;;;15.27;9.47;;;;;;;;;;5021727;28;20213;-83
2023/07/03 04:05:43;;;;;;;15.10;10.00;;;;;;;;;;5004294;28;20690;-84
2023/07/03 04:08:10;;;;;;;18.33;9.87;;;;;;;;;;5033281;28;20241;-84
2023/07/03 04:10:36;;;;;;;17.67;10.00;;;;;;;;;;5046623;28;20194;-84
2023/07/03 04:13:03;;;;;;;16.03;9.27;;;;;;;;;;5039398;28;20609;-84
2023/07/03 04:15:33;;;;;;;14.20;9.83;;;;;;;;;;5030838;28;20208;-83
2023/07/03 04:18:00;;;;;;;15.00;9.40;;;;;;;;;;5002132;28;20657;-84
2023/07/03 04:20:26;;;;;;;15.17;9.87;;;;;;;;;;4994967;28;20185;-83
2023/07/03 04:22:52;;;;;;;15.03;9.83;;;;;;;;;;5048609;28;20665;-83
2023/07/03 04:25:19;;;;;;;15.70;9.23;;;;;;;;;;5054786;28;20283;-78
2023/07/03 04:27:45;;;;;;;15.17;9.37;;;;;;;;;;5048320;28;20280;-76
2023/07/03 04:30:11;;;;;;;14.73;9.57;;;;;;;;;;5045714;28;20186;-76
2023/07/03 04:32:38;;;;;;;16.73;10.27;;;;;;;;;;5043456;28;20216;-76
2023/07/03 04:35:05;;;;;;;15.83;9.60;;;;;;;;;;5052195;28;20542;-78
2023/07/03 04:37:31;;;;;;;15.53;9.63;;;;;;;;;;5046243;28;20201;-77
2023/07/03 04:39:57;;;;;;;18.63;10.33;;;;;;;;;;5033790;28;20206;-77
2023/07/03 04:42:24;;;;;;;17.90;9.83;;;;;;;;;;5050346;28;20178;-78
2023/07/03 04:44:51;;;;;;;12.97;8.93;;;;;;;;;;5035681;28;20273;-77
2023/07/03 04:47:17;;;;;;;15.17;9.40;;;;;;;;;;5049649;28;20182;-78
2023/07/03 04:49:48;;;;;;;16.67;9.40;;;;;;;;;;5034099;28;20542;-78
2023/07/03 04:52:18;;;;;;;16.07;9.90;;;;;;;;;;5050065;28;20201;-78
2023/07/03 04:54:44;;;;;;;14.80;9.50;;;;;;;;;;5034082;28;20193;-78
2023/07/03 04:57:10;;;;;;;16.70;9.47;;;;;;;;;;5050896;28;20210;-77
2023/07/03 04:59:36;;;;;;;15.97;9.53;;;;;;;;;;5044057;28;20182;-77
2023/07/03 05:02:03;;;;;;;15.17;9.53;;;;;;;;;;5014265;28;20190;-77
2023/07/03 05:04:29;;;;;;;16.83;9.37;;;;;;;;;;5036351;28;20178;-77
2023/07/03 05:06:55;;;;;;;16.63;9.50;;;;;;;;;;5050715;28;20221;-78
2023/07/03 05:09:22;;;;;;;15.40;10.00;;;;;;;;;;5048950;28;20217;-77
2023/07/03 05:11:48;;;;;;;19.67;10.13;;;;;;;;;;5050639;28;20210;-77
2023/07/03 05:14:15;;;;;;;16.20;10.13;;;;;;;;;;5052569;28;20182;-77
2023/07/03 05:16:41;;;;;;;17.23;9.87;;;;;;;;;;5037045;28;20270;-78
2023/07/03 05:19:07;;;;;;;14.83;9.87;;;;;;;;;;5051518;28;20193;-77
2023/07/03 05:21:33;;;;;;;16.13;10.60;;;;;;;;;;5048801;28;20193;-78
2023/07/03 05:24:00;;;;;;;17.53;10.30;;;;;;;;;;5032585;28;20182;-78
2023/07/03 05:26:26;;;;;;;20.20;10.77;;;;;;;;;;5031268;28;20206;-78
2023/07/03 05:28:52;;;;;;;14.17;9.80;;;;;;;;;;5052020;28;20592;-77
2023/07/03 05:31:22;;;;;;;18.43;10.47;;;;;;;;;;5051307;28;20292;-78
2023/07/03 05:33:48;;;;;;;16.10;10.60;;;;;;;;;;5052019;28;20181;-78
2023/07/03 05:36:14;;;;;;;21.23;10.70;;;;;;;;;;5037708;28;20216;-77
2023/07/03 05:38:41;;;;;;;15.97;10.03;;;;;;;;;;5049391;28;20652;-77
2023/07/03 05:41:07;;;;;;;16.27;9.73;;;;;;;;;;5049066;28;20177;-78
2023/07/03 05:43:33;;;;;;;17.53;9.90;;;;;;;;;;5050996;28;20182;-77
2023/07/03 05:45:59;;;;;;;15.03;9.83;;;;;;;;;;5048777;28;20205;-78
2023/07/03 05:48:25;;;;;;;16.77;10.30;;;;;;;;;;5048613;28;20182;-77
2023/07/03 05:50:52;;;;;;;17.23;9.97;;;;;;;;;;5047845;28;20202;-77
2023/07/03 05:53:18;;;;;;;17.63;10.73;;;;;;;;;;5031275;28;20192;-77
2023/07/03 05:55:53;;;;;;;21.37;11.17;;;;;;;;;;5046244;28;20705;-77
2023/07/03 05:58:19;;;;;;;17.77;10.00;;;;;;;;;;5051914;28;20235;-78
2023/07/03 06:00:47;;;;;;;15.97;9.50;;;;;;;;;;5047952;28;20209;-78
2023/07/03 06:03:14;;;;;;;14.37;9.43;;;;;;;;;;5044177;28;20178;-78
2023/07/03 06:05:41;;;;;;;17.23;9.80;;;;;;;;;;5032711;28;20212;-75
2023/07/03 06:08:07;;;;;;;16.07;10.40;;;;;;;;;;5051439;28;20186;-78
2023/07/03 06:10:33;;;;;;;17.97;10.33;;;;;;;;;;5032488;28;20193;-78
2023/07/03 06:12:59;;;;;;;16.03;9.77;;;;;;;;;;5041377;28;20216;-77
2023/07/03 06:15:25;;;;;;;18.67;10.60;;;;;;;;;;5047684;28;20210;-79
2023/07/03 06:17:51;;;;;;;18.20;9.90;;;;;;;;;;5049640;28;20179;-77
2023/07/03 06:20:17;;;;;;;16.87;9.80;;;;;;;;;;5049507;28;20511;-80
2023/07/03 06:22:44;;;;;;;17.13;9.80;;;;;;;;;;5034273;28;20186;-80
2023/07/03 06:25:10;;;;;;;16.37;9.00;;;;;;;;;;5052958;28;20202;-81
2023/07/03 06:27:36;;;;;;;15.67;9.53;;;;;;;;;;5019360;28;20280;-82
2023/07/03 06:30:03;;;;;;;15.57;8.87;;;;;;;;;;5051567;28;20222;-76
2023/07/03 06:32:29;;;;;;;13.80;8.17;;;;;;;;;;5038613;28;20214;-76
2023/07/03 06:34:55;;;;;;;13.57;8.77;;;;;;;;;;5031670;28;20527;-76
2023/07/03 06:37:21;;;;;;;15.67;8.23;;;;;;;;;;5048261;28;20174;-77
2023/07/03 06:39:48;;;;;;;15.37;7.90;;;;;;;;;;5032886;28;21864;-76
2023/07/03 06:42:14;;;;;;;12.97;7.70;;;;;;;;;;5046199;28;20182;-77
2023/07/03 06:44:43;;;;;;;15.23;7.93;;;;;;;;;;5030766;28;20185;-77
2023/07/03 06:47:10;;;;;;;14.10;6.60;;;;;;;;;;5047290;28;20213;-77
2023/07/03 06:49:37;;;;;;;12.87;6.17;;;;;;;;;;5051952;28;20210;-77
2023/07/03 06:52:03;;;;;;;15.70;6.07;;;;;;;;;;5051392;28;20296;-77
2023/07/03 06:54:29;;;;;;;14.17;5.97;;;;;;;;;;5045553;28;20198;-77
2023/07/03 06:56:55;;;;;;;10.30;5.23;;;;;;;;;;5051989;28;20994;-77
2023/07/03 06:59:21;;;;;;;18.10;5.67;;;;;;;;;;5035443;28;20182;-77
2023/07/03 07:01:47;;;;;;;13.53;6.30;;;;;;;;;;5052459;28;20181;-77
2023/07/03 07:04:14;;;;;;;13.87;5.80;;;;;;;;;;5050868;28;20197;-78
2023/07/03 07:06:41;;;;;;;12.70;6.13;;;;;;;;;;5049362;28;20288;-76
2023/07/03 07:09:07;;;;;;;11.13;5.57;;;;;;;;;;5053958;28;20190;-77
2023/07/03 07:11:34;;;;;;;12.90;5.63;;;;;;;;;;5031952;28;20205;-77
2023/07/03 07:14:01;;;;;;;12.70;5.70;;;;;;;;;;5052884;28;20178;-77
2023/07/03 07:16:31;;;;;;;16.37;5.37;;;;;;;;;;5053203;28;20693;-77
2023/07/03 07:19:00;;;;;;;10.67;5.27;;;;;;;;;;5048039;28;20180;-77
2023/07/03 07:21:26;;;;;;;13.07;5.07;;;;;;;;;;5041560;28;20182;-77
2023/07/03 07:23:53;;;;;;;12.57;4.80;;;;;;;;;;5049643;28;20189;-76
2023/07/03 07:26:20;;;;;;;11.43;5.10;;;;;;;;;;5041119;28;20215;-77
2023/07/03 07:28:46;;;;;;;11.83;5.40;;;;;;;;;;5048068;28;20667;-77
2023/07/03 07:31:19;;;;;;;8.87;4.93;;;;;;;;;;5043915;28;20209;-77
2023/07/03 07:33:45;;;;;;;11.20;5.20;;;;;;;;;;5039137;28;20217;-78
2023/07/03 07:36:12;;;;;;;10.20;4.63;;;;;;;;;;5047469;28;20560;-77
2023/07/03 07:38:38;;;;;;;13.13;4.80;;;;;;;;;;5045034;28;20221;-79
2023/07/03 07:41:05;;;;;;;10.47;4.90;;;;;;;;;;5047038;28;20194;-78
2023/07/03 07:43:31;;;;;;;10.27;4.63;;;;;;;;;;5024228;28;20186;-75
2023/07/03 07:45:58;;;;;;;9.40;4.30;;;;;;;;;;5021942;28;20301;-74
2023/07/03 07:48:26;;;;;;;9.27;4.13;;;;;;;;;;5022232;28;20205;-74
2023/07/03 07:50:52;;;;;;;13.53;4.87;;;;;;;;;;5049908;28;20209;-74
2023/07/03 07:53:19;;;;;;;8.77;4.47;;;;;;;;;;5049033;28;20202;-74
2023/07/03 07:55:45;;;;;;;12.97;4.40;;;;;;;;;;5046977;28;20212;-75
2023/07/03 07:58:11;;;;;;;10.47;4.60;;;;;;;;;;5045061;28;20178;-75
2023/07/03 08:00:40;;;;;;;8.87;4.40;;;;;;;;;;5048420;28;20231;-75
2023/07/03 08:03:06;;;;;;;9.63;4.03;;;;;;;;;;5043599;28;20189;-74
2023/07/03 08:05:32;;;;;;;11.97;4.30;;;;;;;;;;5048370;28;20689;-75
2023/07/03 08:07:59;;;;;;;11.90;4.23;;;;;;;;;;5049656;28;20542;-74
2023/07/03 08:10:25;;;;;;;9.93;4.53;;;;;;;;;;5029894;28;20178;-76
2023/07/03 08:12:52;;;;;;;9.20;4.23;;;;;;;;;;5049270;28;20204;-76
2023/07/03 08:15:18;;;;;;;10.67;4.43;;;;;;;;;;5032491;28;20206;-77
2023/07/03 08:17:44;;;;;;;10.47;4.00;;;;;;;;;;5045351;28;20719;-77
2023/07/03 08:20:11;;;;;;;9.23;4.17;;;;;;;;;;5040254;28;20189;-73
2023/07/03 08:22:41;;;;;;;12.57;4.87;;;;;;;;;;5049971;28;20185;-77
2023/07/03 08:25:08;;;;;;;7.17;3.87;;;;;;;;;;5052758;28;20204;-77
2023/07/03 08:27:34;;;;;;;8.93;4.07;;;;;;;;;;5034217;28;20181;-75
2023/07/03 08:30:01;;;;;;;7.23;3.90;;;;;;;;;;5041261;28;20192;-77
2023/07/03 08:32:28;;;;;;;8.67;3.80;;;;;;;;;;5049960;28;20225;-77
2023/07/03 08:34:54;;;;;;;10.77;4.30;;;;;;;;;;5047639;28;20630;-75
2023/07/03 08:37:21;;;;;;;9.03;3.97;;;;;;;;;;5046435;28;20240;-77
2023/07/03 08:39:47;;;;;;;7.77;3.60;;;;;;;;;;5052145;28;20183;-76
2023/07/03 08:42:16;;;;;;;7.93;3.90;;;;;;;;;;5047556;28;20586;-77
2023/07/03 08:44:42;;;;;;;11.07;3.77;;;;;;;;;;5048599;28;20190;-77
2023/07/03 08:47:12;;;;;;;7.63;3.60;;;;;;;;;;5052379;28;20292;-77
2023/07/03 08:49:39;;;;;;;8.20;3.47;;;;;;;;;;5050611;28;20269;-77
2023/07/03 08:52:07;;;;;;;7.27;3.20;;;;;;;;;;5027265;28;20257;-77
2023/07/03 08:54:35;;;;;;;11.27;3.83;;;;;;;;;;5032489;28;20193;-76
2023/07/03 08:57:03;;;;;;;6.07;3.00;;;;;;;;;;5057210;28;20209;-77
2023/07/03 08:59:29;;;;;;;6.77;3.13;;;;;;;;;;5051523;28;20685;-77
2023/07/03 09:01:58;;;;;;;7.23;3.27;;;;;;;;;;5049899;28;20243;-76
2023/07/03 09:04:37;;;;;;;7.63;3.07;;;;;;;;;;5030444;28;20190;-77
2023/07/03 09:07:06;;;;;;;7.37;3.70;;;;;;;;;;5031925;28;20205;-77
2023/07/03 09:09:38;;;;;;;6.17;3.43;;;;;;;;;;5055358;28;20268;-79
2023/07/03 09:12:16;;;;;;;6.57;3.00;;;;;;;;;;5051108;28;20753;-76
2023/07/03 09:14:53;;;;;;;6.20;3.40;;;;;;;;;;5050293;28;20836;-77
2023/07/03 09:17:20;;;;;;;10.03;3.17;;;;;;;;;;5032139;28;20186;-76
2023/07/03 09:19:48;;;;;;;7.27;3.20;;;;;;;;;;5049563;28;20228;-76
2023/07/03 09:22:19;;;;;;;5.90;3.33;;;;;;;;;;5045884;28;20345;-76
2023/07/03 09:24:46;;;;;;;6.87;2.93;;;;;;;;;;5037270;28;20186;-76
2023/07/03 09:27:15;;;;;;;5.90;2.97;;;;;;;;;;5049153;28;20284;-79
2023/07/03 09:29:43;;;;;;;6.17;3.00;;;;;;;;;;5049284;28;20186;-77
2023/07/03 09:32:13;;;;;;;5.80;2.97;;;;;;;;;;5047456;28;20240;-77
2023/07/03 09:34:59;;;;;;;7.63;3.37;;;;;;;;;;5055772;28;20213;-76
2023/07/03 09:37:25;;;;;;;6.37;3.23;;;;;;;;;;5053409;28;20568;-77
2023/07/03 09:39:52;;;;;;;6.90;3.07;;;;;;;;;;5051038;28;20193;-76
2023/07/03 09:42:18;;;;;;;5.80;3.10;;;;;;;;;;5038498;28;22076;-75
2023/07/03 09:44:44;;;;;;;7.27;3.43;;;;;;;;;;5034860;28;20260;-75
2023/07/03 09:47:26;;;;;;;7.73;3.53;;;;;;;;;;5049814;28;20213;-76
2023/07/03 09:49:52;;;;;;;7.53;3.40;;;;;;;;;;5049218;28;20264;-77
2023/07/03 09:52:19;;;;;;;6.90;3.30;;;;;;;;;;5047865;28;20309;-73
2023/07/03 09:54:46;;;;;;;5.07;2.67;;;;;;;;;;5030366;28;20209;-77
2023/07/03 09:57:23;;;;;;;6.77;3.20;;;;;;;;;;5027072;28;20225;-77
2023/07/03 09:59:49;;;;;;;7.47;2.97;;;;;;;;;;5048396;28;20258;-76
2023/07/03 10:02:16;;;;;;;4.93;3.10;;;;;;;;;;5033944;28;20202;-76
2023/07/03 10:04:43;;;;;;;4.27;2.70;;;;;;;;;;5048589;28;20182;-74
2023/07/03 10:07:13;;;;;;;7.37;3.20;;;;;;;;;;5045527;28;20201;-76
2023/07/03 10:09:41;;;;;;;7.60;3.27;;;;;;;;;;5050091;28;20653;-75
2023/07/03 10:12:09;;;;;;;8.20;3.20;;;;;;;;;;5050854;28;20221;-77
2023/07/03 10:14:39;;;;;;;4.73;2.67;;;;;;;;;;5027139;28;20196;-76
2023/07/03 10:17:12;;;;;;;5.73;2.53;;;;;;;;;;5042168;28;20247;-76
2023/07/03 10:19:39;;;;;;;6.70;2.77;;;;;;;;;;5049034;28;20178;-76
2023/07/03 10:22:06;;;;;;;4.93;2.60;;;;;;;;;;5046175;28;20280;-74
2023/07/03 10:24:35;;;;;;;6.13;2.90;;;;;;;;;;5041857;28;20186;-76
2023/07/03 10:27:04;;;;;;;9.47;3.20;;;;;;;;;;5014123;28;20221;-76
2023/07/03 10:29:39;;;;;;;7.20;2.90;;;;;;;;;;5028564;28;20266;-76
2023/07/03 10:32:15;;;;;;;4.40;2.60;;;;;;;;;;5048645;28;20798;-77
2023/07/03 10:34:53;;;;;;;7.63;3.00;;;;;;;;;;5048711;28;20196;-76
2023/07/03 10:37:21;;;;;;;6.77;3.20;;;;;;;;;;5033373;28;20244;-76
2023/07/03 10:40:00;;;;;;;6.90;3.17;;;;;;;;;;5043423;28;20173;-77
2023/07/03 10:42:27;;;;;;;4.87;2.93;;;;;;;;;;5056035;28;20193;-77
2023/07/03 10:45:01;;;;;;;8.50;3.37;;;;;;;;;;5050782;28;20192;-78
2023/07/03 10:47:31;;;;;;;6.97;3.23;;;;;;;;;;5041000;28;20217;-78
2023/07/03 10:49:57;;;;;;;5.10;3.00;;;;;;;;;;5054373;28;20188;-77
2023/07/03 10:52:54;;;;;;;7.73;3.27;;;;;;;;;;5028699;28;20276;-77
2023/07/03 10:55:28;;;;;;;3.73;2.60;;;;;;;;;;4962531;28;20248;-74
2023/07/03 10:58:07;;;;;;;5.23;3.03;;;;;;;;;;5044266;28;20551;-74
2023/07/03 11:00:40;;;;;;;6.10;3.20;;;;;;;;;;5049432;28;20642;-78
2023/07/03 11:03:12;;;;;;;5.90;3.17;;;;;;;;;;5044784;28;20182;-78
2023/07/03 11:05:44;;;;;;;6.23;3.00;;;;;;;;;;5046328;28;20754;-77
2023/07/03 11:08:19;;;;;;;6.33;2.97;;;;;;;;;;5043625;28;20999;-78
2023/07/03 11:10:53;;;;;;;6.90;3.10;;;;;;;;;;5052956;28;20280;-77
2023/07/03 11:13:33;;;;;;;6.53;3.30;;;;;;;;;;5046462;28;20208;-78
2023/07/03 11:16:13;;;;;;;6.10;3.00;;;;;;;;;;5044003;28;20200;-77
2023/07/03 11:18:39;;;;;;;5.90;2.90;;;;;;;;;;5050002;28;20363;-78
2023/07/03 11:21:17;;;;;;;6.70;4.33;;;;;;;;;;5040388;28;20192;-77
2023/07/03 11:23:56;;;;;;;6.83;3.30;;;;;;;;;;5042448;28;20171;-77
2023/07/03 11:26:43;;;;;;;6.57;3.20;;;;;;;;;;5038806;28;20682;-75
2023/07/03 11:29:11;;;;;;;7.13;3.10;;;;;;;;;;5035343;28;20198;-78
2023/07/03 11:31:40;;;;;;;7.77;3.27;;;;;;;;;;5047736;28;20266;-78
2023/07/03 11:34:08;;;;;;;7.60;3.10;;;;;;;;;;5054916;28;20212;-77
2023/07/03 11:36:34;;;;;;;6.37;2.80;;;;;;;;;;5029324;28;20269;-76
2023/07/03 11:39:21;;;;;;;4.43;2.83;;;;;;;;;;5070226;28;20217;-78
2023/07/03 11:41:53;;;;;;;5.57;3.10;;;;;;;;;;5051430;28;20197;-78
2023/07/03 11:44:20;;;;;;;7.57;3.07;;;;;;;;;;5030837;28;20190;-77
2023/07/03 11:46:53;;;;;;;6.13;2.83;;;;;;;;;;5034748;28;20206;-76
2023/07/03 11:49:19;;;;;;;6.77;2.90;;;;;;;;;;5029289;28;20186;-76
2023/07/03 11:51:45;;;;;;;6.13;3.13;;;;;;;;;;5050369;28;20621;-77
2023/07/03 11:54:22;;;;;;;10.87;3.00;;;;;;;;;;5045697;28;20181;-76
2023/07/03 11:57:00;;;;;;;6.43;2.47;;;;;;;;;;5035919;28;20232;-76
2023/07/03 11:59:28;;;;;;;4.40;2.67;;;;;;;;;;5049593;28;20199;-76
2023/07/03 12:02:14;;;;;;;6.80;3.03;;;;;;;;;;5056455;28;20197;-73
2023/07/03 12:04:47;;;;;;;4.53;2.47;;;;;;;;;;5034050;28;20255;-75
2023/07/03 12:07:21;;;;;;;6.77;2.90;;;;;;;;;;5037715;28;20244;-79
2023/07/03 12:09:48;;;;;;;6.07;2.93;;;;;;;;;;5054496;28;20272;-76
2023/07/03 12:12:18;;;;;;;6.73;3.40;;;;;;;;;;5054917;28;20217;-77
2023/07/03 12:14:52;;;;;;;5.60;2.80;;;;;;;;;;5054167;28;20718;-78
2023/07/03 12:17:32;;;;;;;5.83;3.10;;;;;;;;;;5053262;28;20185;-77
2023/07/03 12:20:12;;;;;;;8.13;3.20;;;;;;;;;;5044826;28;20553;-78
2023/07/03 12:22:41;;;;;;;5.33;2.90;;;;;;;;;;5050749;28;20665;-78
2023/07/03 12:25:11;;;;;;;5.07;2.50;;;;;;;;;;5051069;28;20192;-76
2023/07/03 12:27:38;;;;;;;6.17;2.67;;;;;;;;;;5051086;28;20722;-77
2023/07/03 12:30:10;;;;;;;6.30;3.00;;;;;;;;;;5051631;28;20181;-76
2023/07/03 12:32:37;;;;;;;5.47;2.90;;;;;;;;;;5049696;28;20210;-76
2023/07/03 12:35:29;;;;;;;4.77;2.80;;;;;;;;;;5052842;28;20221;-77
2023/07/03 12:37:57;;;;;;;5.47;3.10;;;;;;;;;;5046801;28;20225;-76
2023/07/03 12:40:24;;;;;;;5.27;2.60;;;;;;;;;;5040498;28;20269;-77
2023/07/03 12:42:52;;;;;;;5.00;2.57;;;;;;;;;;5044031;28;20183;-77
2023/07/03 12:45:20;;;;;;;3.80;2.70;;;;;;;;;;5042666;28;20213;-77
2023/07/03 12:47:46;;;;;;;6.10;2.70;;;;;;;;;;5048734;28;20246;-76
2023/07/03 12:50:14;;;;;;;4.77;2.47;;;;;;;;;;5029282;28;20721;-77
2023/07/03 12:52:41;;;;;;;3.13;2.33;;;;;;;;;;5052369;28;21016;-77
2023/07/03 12:55:07;;;;;;;7.73;3.10;;;;;;;;;;5046816;28;20657;-76
2023/07/03 12:57:34;;;;;;;3.93;2.50;;;;;;;;;;5022884;28;20190;-77
2023/07/03 13:00:00;;;;;;;5.63;2.67;;;;;;;;;;5028429;28;20250;-80
2023/07/03 13:02:31;;;;;;;5.03;2.80;;;;;;;;;;5048756;28;20240;-76
2023/07/03 13:05:01;;;;;;;5.33;2.63;;;;;;;;;;5052101;28;20216;-78
2023/07/03 13:07:28;;;;;;;4.43;2.43;;;;;;;;;;5050697;28;20291;-75
2023/07/03 13:09:59;;;;;;;6.70;2.43;;;;;;;;;;5035846;28;20944;-75
2023/07/03 13:12:27;;;;;;;4.13;2.40;;;;;;;;;;5033249;28;20217;-74
2023/07/03 13:15:00;;;;;;;6.30;2.40;;;;;;;;;;5051275;28;20715;-75
2023/07/03 13:17:28;;;;;;;8.23;2.57;;;;;;;;;;5049787;28;20672;-75
2023/07/03 13:19:54;;;;;;;6.70;2.57;;;;;;;;;;5053333;28;20537;-77
2023/07/03 13:22:21;;;;;;;5.33;2.80;;;;;;;;;;5052633;28;20178;-77
2023/07/03 13:24:51;;;;;;;4.10;2.60;;;;;;;;;;5050569;28;20244;-75
2023/07/03 13:27:25;;;;;;;5.13;2.93;;;;;;;;;;5051364;28;20710;-76
2023/07/03 13:29:57;;;;;;;4.13;2.60;;;;;;;;;;5043982;28;20251;-73
2023/07/03 13:32:25;;;;;;;5.53;2.40;;;;;;;;;;5047300;28;20198;-74
2023/07/03 13:35:02;;;;;;;4.80;2.10;;;;;;;;;;5048619;28;20317;-76
2023/07/03 13:37:29;;;;;;;4.17;2.40;;;;;;;;;;5046938;28;20185;-77
2023/07/03 13:39:55;;;;;;;4.40;2.50;;;;;;;;;;5032273;28;20185;-74
2023/07/03 13:42:22;;;;;;;4.47;2.30;;;;;;;;;;5034469;28;20186;-74
2023/07/03 13:44:48;;;;;;;4.47;2.50;;;;;;;;;;5052517;28;20190;-77
2023/07/03 13:47:14;;;;;;;5.07;2.50;;;;;;;;;;5033742;28;20200;-78
2023/07/03 13:49:42;;;;;;;6.57;2.60;;;;;;;;;;5049146;28;20665;-77
2023/07/03 13:52:08;;;;;;;4.60;2.40;;;;;;;;;;5043612;28;20212;-75
2023/07/03 13:54:34;;;;;;;5.83;2.60;;;;;;;;;;5028771;28;20554;-75
2023/07/03 13:57:01;;;;;;;4.77;2.63;;;;;;;;;;5047032;28;20211;-77
2023/07/03 13:59:27;;;;;;;3.87;2.47;;;;;;;;;;5043747;28;20184;-76
2023/07/03 14:01:53;;;;;;;3.80;2.20;;;;;;;;;;5041845;28;20182;-75
2023/07/03 14:04:20;;;;;;;3.90;2.30;;;;;;;;;;5047340;28;20257;-77
2023/07/03 14:06:48;;;;;;;3.13;2.13;;;;;;;;;;5051634;28;21766;-77
2023/07/03 14:09:14;;;;;;;3.40;2.10;;;;;;;;;;5052153;28;20898;-75
2023/07/03 14:11:42;;;;;;;4.37;2.30;;;;;;;;;;5027363;28;20203;-76
2023/07/03 14:14:09;;;;;;;4.70;2.10;;;;;;;;;;5028245;28;20188;-73
2023/07/03 14:16:35;;;;;;;3.53;2.17;;;;;;;;;;5031469;28;20628;-77
2023/07/03 14:19:02;;;;;;;3.70;2.10;;;;;;;;;;5047264;28;20189;-77
2023/07/03 14:21:28;;;;;;;4.53;2.40;;;;;;;;;;5046141;28;20212;-76
2023/07/03 14:23:55;;;;;;;6.13;2.30;;;;;;;;;;5050642;28;20267;-76
2023/07/03 14:26:23;;;;;;;4.03;1.90;;;;;;;;;;5046880;28;20581;-76
2023/07/03 14:28:49;;;;;;;3.63;1.73;;;;;;;;;;5037500;28;20191;-75
2023/07/03 14:31:16;;;;;;;4.20;1.90;;;;;;;;;;5047485;28;20212;-75
2023/07/03 14:33:42;;;;;;;3.00;2.00;;;;;;;;;;5058862;28;20176;-77
2023/07/03 14:36:09;;;;;;;3.87;2.07;;;;;;;;;;5034358;28;20191;-77
2023/07/03 14:38:35;;;;;;;3.40;2.10;;;;;;;;;;5038141;28;20298;-76
2023/07/03 14:41:01;;;;;;;4.60;2.00;;;;;;;;;;5046319;28;20190;-73